createdAt,value
2018-11-25T00:00:38.344Z,10.70
2018-11-25T00:03:12.887Z,7.63
2018-11-25T00:05:47.045Z,8.60
2018-11-25T00:08:20.828Z,7.37
2018-11-25T00:10:55.021Z,7.47
2018-11-25T00:13:28.820Z,8.00
2018-11-25T00:16:02.612Z,6.73
2018-11-25T00:18:37.126Z,6.30
2018-11-25T00:21:11.369Z,8.13
2018-11-25T00:23:45.200Z,8.60
2018-11-25T00:26:19.004Z,7.73
2018-11-25T00:28:52.848Z,9.97
2018-11-25T00:31:26.728Z,8.43
2018-11-25T00:34:00.535Z,8.87
2018-11-25T00:36:34.372Z,9.13
2018-11-25T00:39:10.665Z,9.93
2018-11-25T00:41:45.501Z,10.17
2018-11-25T00:44:19.373Z,10.40
2018-11-25T00:46:53.177Z,9.77
2018-11-25T00:49:26.966Z,8.63
2018-11-25T00:52:01.173Z,10.40
2018-11-25T00:54:34.960Z,10.90
2018-11-25T00:57:08.795Z,12.47
2018-11-25T00:59:43.142Z,17.93
2018-11-25T01:02:16.979Z,15.93
2018-11-25T01:04:50.773Z,18.17
2018-11-25T01:07:24.630Z,22.03
2018-11-25T01:09:58.465Z,13.53
2018-11-25T01:12:32.270Z,15.73
2018-11-25T01:15:06.436Z,17.37
2018-11-25T01:17:40.264Z,15.80
2018-11-25T01:20:26.041Z,16.20
2018-11-25T01:22:59.902Z,17.53
2018-11-25T01:25:34.464Z,19.63
2018-11-25T01:28:08.575Z,16.97
2018-11-25T01:30:42.375Z,17.03
2018-11-25T01:33:16.469Z,16.87
2018-11-25T01:35:51.037Z,16.10
2018-11-25T01:38:24.857Z,15.70
2018-11-25T01:40:58.665Z,16.63
2018-11-25T01:43:32.445Z,17.83
2018-11-25T01:46:06.373Z,16.60
2018-11-25T01:48:40.144Z,20.13
2018-11-25T01:51:13.964Z,21.23
2018-11-25T01:53:47.833Z,21.77
2018-11-25T01:56:22.374Z,19.53
2018-11-25T01:58:56.184Z,20.57
2018-11-25T02:05:40.561Z,20.73
2018-11-25T02:08:14.360Z,22.73
2018-11-25T02:10:48.250Z,23.70
2018-11-25T02:16:08.180Z,22.33
2018-11-25T02:18:41.960Z,21.63
2018-11-25T02:21:16.493Z,22.10
2018-11-25T02:26:33.245Z,23.50
2018-11-25T02:29:07.118Z,22.97
2018-11-25T02:31:41.022Z,27.67
2018-11-25T02:34:15.105Z,27.40
2018-11-25T02:36:48.911Z,29.40
2018-11-25T02:39:22.732Z,31.07
2018-11-25T02:41:56.593Z,27.47
2018-11-25T02:44:30.429Z,28.83
2018-11-25T02:47:04.616Z,28.67
2018-11-25T02:49:38.379Z,28.27
2018-11-25T02:54:53.656Z,29.83
2018-11-25T02:57:27.462Z,34.73
2018-11-25T03:00:01.611Z,31.00
2018-11-25T03:02:35.704Z,31.07
2018-11-25T03:07:51.061Z,31.03
2018-11-25T03:10:24.844Z,36.20
2018-11-25T03:15:40.511Z,32.27
2018-11-25T03:18:15.074Z,36.63
2018-11-25T03:20:48.941Z,31.73
2018-11-25T03:23:22.780Z,34.93
2018-11-25T03:25:57.188Z,47.07
2018-11-25T03:28:32.088Z,31.60
2018-11-25T03:31:05.949Z,29.83
2018-11-25T03:33:39.789Z,31.30
2018-11-25T03:36:13.577Z,28.73
2018-11-25T03:38:47.701Z,30.87
2018-11-25T03:41:21.518Z,35.53
2018-11-25T03:43:56.492Z,30.73
2018-11-25T03:46:31.013Z,34.20
2018-11-25T03:49:05.585Z,29.23
2018-11-25T03:51:39.351Z,29.73
2018-11-25T03:54:13.176Z,34.33
2018-11-25T03:56:46.938Z,33.97
2018-11-25T03:59:20.800Z,34.93
2018-11-25T04:01:54.638Z,34.80
2018-11-25T04:04:28.562Z,36.13
2018-11-25T04:07:03.149Z,35.07
2018-11-25T04:09:37.017Z,36.73
2018-11-25T04:12:12.333Z,39.37
2018-11-25T04:17:27.945Z,35.63
2018-11-25T04:20:02.913Z,30.90
2018-11-25T04:25:18.488Z,33.10
2018-11-25T04:27:53.098Z,41.23
2018-11-25T04:30:27.666Z,35.87
2018-11-25T04:35:43.012Z,38.50
2018-11-25T04:38:18.038Z,37.23
2018-11-25T04:40:51.844Z,37.73
2018-11-25T04:46:08.178Z,37.50
2018-11-25T04:48:42.360Z,37.47
2018-11-25T04:51:16.158Z,44.07
2018-11-25T04:53:49.968Z,40.53
2018-11-25T04:56:24.023Z,37.77
2018-11-25T04:58:58.541Z,40.60
2018-11-25T05:01:32.384Z,47.20
2018-11-25T05:04:06.217Z,47.50
2018-11-25T05:06:40.025Z,40.87
2018-11-25T05:09:14.015Z,45.53
2018-11-25T05:11:47.784Z,42.27
2018-11-25T05:14:22.332Z,42.90
2018-11-25T05:16:56.132Z,46.60
2018-11-25T05:19:29.924Z,44.23
2018-11-25T05:22:04.510Z,42.30
2018-11-25T05:24:38.351Z,44.23
2018-11-25T05:27:12.873Z,50.77
2018-11-25T05:29:47.398Z,41.97
2018-11-25T05:32:21.577Z,42.07
2018-11-25T05:34:55.369Z,42.13
2018-11-25T05:37:29.221Z,43.27
2018-11-25T05:42:43.380Z,50.63
2018-11-25T05:48:11.278Z,45.93
2018-11-25T05:50:45.882Z,46.03
2018-11-25T05:56:09.581Z,51.53
2018-11-25T05:58:43.458Z,40.00
2018-11-25T06:01:17.512Z,41.97
2018-11-25T06:06:34.745Z,41.73
2018-11-25T06:09:10.444Z,36.60
2018-11-25T06:11:44.527Z,39.37
2018-11-25T06:14:19.371Z,35.10
2018-11-25T06:19:34.676Z,36.43
2018-11-25T06:22:08.982Z,35.13
2018-11-25T06:24:43.095Z,37.40
2018-11-25T06:27:16.886Z,33.73
2018-11-25T06:29:51.391Z,32.50
2018-11-25T06:32:25.222Z,33.10
2018-11-25T06:37:39.385Z,33.17
2018-11-25T06:40:22.976Z,36.93
2018-11-25T06:45:38.960Z,34.63
2018-11-25T06:48:12.828Z,36.67
2018-11-25T06:50:47.685Z,37.17
2018-11-25T06:53:21.505Z,37.43
2018-11-25T06:58:36.757Z,33.97
2018-11-25T07:01:11.404Z,33.93
2018-11-25T07:03:45.249Z,34.40
2018-11-25T07:06:19.316Z,32.17
2018-11-25T07:08:53.074Z,33.37
2018-11-25T07:11:26.813Z,33.87
2018-11-25T07:14:01.425Z,34.63
2018-11-25T07:16:35.238Z,34.53
2018-11-25T07:19:09.849Z,35.33
2018-11-25T07:21:44.436Z,33.83
2018-11-25T07:24:18.220Z,29.17
2018-11-25T07:26:52.042Z,31.03
2018-11-25T07:29:25.812Z,33.43
2018-11-25T07:32:01.121Z,28.77
2018-11-25T07:37:14.532Z,29.57
2018-11-25T07:39:48.408Z,27.37
2018-11-25T07:45:05.376Z,27.20
2018-11-25T07:47:39.269Z,26.17
2018-11-25T07:50:16.308Z,25.90
2018-11-25T07:55:33.206Z,21.57
2018-11-25T07:58:07.534Z,23.57
2018-11-25T08:00:41.281Z,21.77
2018-11-25T08:03:15.849Z,19.47
2018-11-25T08:05:49.637Z,18.87
2018-11-25T08:08:23.388Z,20.23
2018-11-25T08:10:57.214Z,16.60
2018-11-25T08:13:31.017Z,18.10
2018-11-25T08:18:45.140Z,16.57
2018-11-25T08:21:19.652Z,16.50
2018-11-25T08:26:34.884Z,19.90
2018-11-25T08:29:08.760Z,21.03
2018-11-25T08:31:42.538Z,24.50
2018-11-25T08:37:02.301Z,24.30
2018-11-25T08:39:36.218Z,19.63
2018-11-25T08:42:09.961Z,19.07
2018-11-25T08:47:25.219Z,37.53
2018-11-25T08:49:59.852Z,40.73
2018-11-25T08:52:33.630Z,21.90
2018-11-25T08:55:10.073Z,20.83
2018-11-25T08:57:43.825Z,23.43
2018-11-25T09:00:27.611Z,27.67
2018-11-25T09:03:02.031Z,39.83
2018-11-25T09:08:17.350Z,27.97
2018-11-25T09:16:12.078Z,34.23
2018-11-25T09:18:45.931Z,131.20
2018-11-25T09:21:20.772Z,29.07
2018-11-25T09:26:35.683Z,29.03
2018-11-25T09:29:09.676Z,53.80
2018-11-25T09:31:43.480Z,49.43
2018-11-25T09:36:56.881Z,78.37
2018-11-25T09:39:31.472Z,68.90
2018-11-25T09:42:05.313Z,93.77
2018-11-25T09:47:21.381Z,132.57
2018-11-25T09:49:55.211Z,66.70
2018-11-25T09:55:13.292Z,26.83
2018-11-25T09:57:51.668Z,18.60
2018-11-25T10:00:30.281Z,19.83
2018-11-25T10:05:51.269Z,16.73
2018-11-25T10:08:25.840Z,23.60
2018-11-25T10:10:59.676Z,27.03
2018-11-25T10:16:14.960Z,20.93
2018-11-25T10:18:48.779Z,19.43
2018-11-25T10:21:22.576Z,20.43
2018-11-25T10:26:37.897Z,18.00
2018-11-25T10:29:12.454Z,18.80
2018-11-25T10:31:46.244Z,19.77
2018-11-25T10:39:41.365Z,21.33
2018-11-25T10:42:15.337Z,25.27
2018-11-25T10:47:30.920Z,32.83
2018-11-25T10:50:04.729Z,31.80
2018-11-25T10:52:38.505Z,36.20
2018-11-25T10:57:56.397Z,45.90
2018-11-25T11:00:52.992Z,28.77
2018-11-25T11:06:47.004Z,44.60
2018-11-25T11:09:20.808Z,48.93
2018-11-25T11:11:55.344Z,40.80
2018-11-25T11:17:10.661Z,41.30
2018-11-25T11:19:44.494Z,51.03
2018-11-25T11:25:02.363Z,41.40
2018-11-25T11:27:36.183Z,28.27
2018-11-25T11:30:13.973Z,59.47
2018-11-25T11:32:50.456Z,50.37
2018-11-25T11:38:04.561Z,30.13
2018-11-25T11:40:39.089Z,39.73
2018-11-25T11:43:12.922Z,60.23
2018-11-25T11:48:28.300Z,59.33
2018-11-25T11:51:02.097Z,30.17
2018-11-25T11:56:17.405Z,32.57
2018-11-25T11:58:51.202Z,26.07
2018-11-25T12:01:24.976Z,27.93
2018-11-25T12:06:40.601Z,41.60
2018-11-25T12:09:14.470Z,23.73
2018-11-25T12:11:48.519Z,29.60
2018-11-25T12:17:04.122Z,27.80
2018-11-25T12:19:37.989Z,28.03
2018-11-25T12:22:12.615Z,30.03
2018-11-25T12:27:27.913Z,35.43
2018-11-25T12:30:01.727Z,45.83
2018-11-25T12:35:19.144Z,52.83
2018-11-25T12:37:53.692Z,35.30
2018-11-25T12:40:27.465Z,25.33
2018-11-25T12:45:44.214Z,44.23
2018-11-25T12:48:18.033Z,38.23
2018-11-25T12:50:51.846Z,36.43
2018-11-25T12:56:08.049Z,58.70
2018-11-25T12:58:41.868Z,35.23
2018-11-25T13:01:15.661Z,30.37
2018-11-25T13:06:31.126Z,35.80
2018-11-25T13:09:05.321Z,41.43
2018-11-25T13:11:39.188Z,32.93
2018-11-25T13:16:54.522Z,35.93
2018-11-25T13:19:28.325Z,53.90
2018-11-25T13:22:02.629Z,27.73
2018-11-25T13:27:16.017Z,34.73
2018-11-25T13:29:49.813Z,39.70
2018-11-25T13:35:03.846Z,33.37
2018-11-25T13:37:37.688Z,25.50
2018-11-25T13:40:17.335Z,28.87
2018-11-25T13:45:34.165Z,27.80
2018-11-25T13:48:08.834Z,31.17
2018-11-25T13:50:42.627Z,24.57
2018-11-25T13:55:57.945Z,34.97
2018-11-25T13:58:31.824Z,39.40
2018-11-25T14:06:28.779Z,44.67
2018-11-25T14:09:02.597Z,28.77
2018-11-25T14:11:37.119Z,37.57
2018-11-25T14:16:53.168Z,33.93
2018-11-25T14:19:27.010Z,31.63
2018-11-25T14:22:00.822Z,29.03
2018-11-25T14:27:17.512Z,79.20
2018-11-25T14:29:51.356Z,53.60
2018-11-25T14:35:08.445Z,106.57
2018-11-25T14:37:42.313Z,37.93
2018-11-25T14:40:18.171Z,39.97
2018-11-25T14:45:34.188Z,28.30
2018-11-25T14:50:50.273Z,34.40
2018-11-25T14:56:05.636Z,52.27
2018-11-25T14:58:40.371Z,67.43
2018-11-25T15:01:14.135Z,58.43
2018-11-25T15:06:29.750Z,121.53
2018-11-25T15:09:03.408Z,91.47
2018-11-25T15:11:37.419Z,96.57
2018-11-25T15:16:53.513Z,72.80
2018-11-25T15:19:27.416Z,40.43
2018-11-25T15:22:01.179Z,58.57
2018-11-25T15:27:16.525Z,55.13
2018-11-25T15:29:51.181Z,59.50
2018-11-25T15:35:08.047Z,61.60
2018-11-25T15:37:47.365Z,53.30
2018-11-25T15:40:24.327Z,70.70
2018-11-25T15:45:48.832Z,110.00
2018-11-25T15:48:28.089Z,90.20
2018-11-25T15:51:02.193Z,52.50
2018-11-25T15:56:18.248Z,73.30
2018-11-25T15:58:52.091Z,141.23
2018-11-25T16:01:25.940Z,143.27
2018-11-25T16:06:41.748Z,71.00
2018-11-25T16:09:15.636Z,148.83
2018-11-25T16:11:50.206Z,96.03
2018-11-25T16:17:05.563Z,124.20
2018-11-25T16:19:39.797Z,94.30
2018-11-25T16:22:13.572Z,103.30
2018-11-25T16:27:29.656Z,91.70
2018-11-25T16:30:03.547Z,62.53
2018-11-25T16:35:27.341Z,126.00
2018-11-25T16:38:01.924Z,136.63
2018-11-25T16:40:35.728Z,77.00
2018-11-25T16:45:51.354Z,92.00
2018-11-25T16:48:25.152Z,56.23
2018-11-25T16:50:58.960Z,228.43
2018-11-25T16:56:14.275Z,63.17
2018-11-25T16:58:48.284Z,143.63
2018-11-25T17:01:22.127Z,71.70
2018-11-25T17:06:39.106Z,157.93
2018-11-25T17:09:14.824Z,130.67
2018-11-25T17:11:49.669Z,190.77
2018-11-25T17:17:07.524Z,125.73
2018-11-25T17:19:41.342Z,184.73
2018-11-25T17:22:16.737Z,255.77
2018-11-25T17:27:30.748Z,323.27
2018-11-25T17:30:04.532Z,135.23
2018-11-25T17:35:32.291Z,89.73
2018-11-25T17:38:06.077Z,153.80
2018-11-25T17:40:41.254Z,83.67
2018-11-25T17:46:04.441Z,52.50
2018-11-25T17:48:38.229Z,170.07
2018-11-25T17:51:12.768Z,83.77
2018-11-25T17:56:28.409Z,94.53
2018-11-25T17:59:02.515Z,49.03
2018-11-25T18:01:36.316Z,42.00
2018-11-25T18:06:51.804Z,74.83
2018-11-25T18:09:25.916Z,77.77
2018-11-25T18:11:59.761Z,28.87
2018-11-25T18:17:15.058Z,36.80
2018-11-25T18:19:48.872Z,63.37
2018-11-25T18:25:11.302Z,64.93
2018-11-25T18:27:45.128Z,76.20
2018-11-25T18:30:19.531Z,112.70
2018-11-25T18:35:34.822Z,27.37
2018-11-25T18:38:09.930Z,44.60
2018-11-25T18:40:43.748Z,46.70
2018-11-25T18:45:59.530Z,144.77
2018-11-25T18:48:35.356Z,82.00
2018-11-25T18:51:09.888Z,129.10
2018-11-25T18:56:26.657Z,61.07
2018-11-25T18:59:00.519Z,90.07
2018-11-25T19:04:50.081Z,155.97
2018-11-25T19:07:23.956Z,142.73
2018-11-25T19:09:57.744Z,195.60
2018-11-25T19:15:18.709Z,158.00
2018-11-25T19:17:53.408Z,30.70
2018-11-25T19:20:29.547Z,85.80
2018-11-25T19:25:45.555Z,144.63
2018-11-25T19:28:19.408Z,91.67
2018-11-25T19:30:53.203Z,85.20
2018-11-25T19:36:08.926Z,34.27
2018-11-25T19:38:42.792Z,42.90
2018-11-25T19:41:17.333Z,80.13
2018-11-25T19:46:32.654Z,81.90
2018-11-25T19:49:06.842Z,81.63
2018-11-25T19:51:40.606Z,73.47
2018-11-25T19:56:53.963Z,33.83
2018-11-25T19:59:28.921Z,38.63
2018-11-25T20:02:03.729Z,61.60
2018-11-25T20:07:20.581Z,44.23
2018-11-25T20:15:47.786Z,41.07
2018-11-25T20:18:30.242Z,39.80
2018-11-25T20:21:33.342Z,56.70
2018-11-25T20:27:38.178Z,74.03
2018-11-25T20:45:26.269Z,44.77
2018-11-25T20:48:04.097Z,66.03
2018-11-25T20:50:39.655Z,39.33
2018-11-25T20:56:25.786Z,73.00
2018-11-25T20:59:03.531Z,157.23
2018-11-25T21:01:39.416Z,59.10
2018-11-25T21:07:06.740Z,42.20
2018-11-25T21:09:44.152Z,63.83
2018-11-25T21:15:19.936Z,85.27
2018-11-25T21:17:54.755Z,77.13
2018-11-25T21:20:31.922Z,49.87
2018-11-25T21:25:58.571Z,79.50
2018-11-25T21:28:39.138Z,78.17
2018-11-25T21:31:16.071Z,97.23
2018-11-25T21:36:35.070Z,76.47
2018-11-25T21:39:18.300Z,82.90
2018-11-25T21:41:55.145Z,46.00
2018-11-25T21:44:31.614Z,63.17
2018-11-25T21:49:49.702Z,66.70
2018-11-25T21:55:20.510Z,77.30
2018-11-25T21:57:55.147Z,44.40
2018-11-25T22:00:29.519Z,42.27
2018-11-25T22:05:47.983Z,37.83
2018-11-25T22:08:25.402Z,40.47
2018-11-25T22:11:03.852Z,54.83
2018-11-25T22:16:19.798Z,33.27
2018-11-25T22:18:54.152Z,38.90
2018-11-25T22:21:28.905Z,37.17
2018-11-25T22:26:51.658Z,32.47
2018-11-25T22:29:27.581Z,31.30
2018-11-25T22:32:01.755Z,32.50
2018-11-25T22:37:21.198Z,28.77
2018-11-25T22:39:55.937Z,32.57
2018-11-25T22:45:24.740Z,33.67
2018-11-25T22:47:59.437Z,30.00
2018-11-25T22:50:33.721Z,31.17
2018-11-25T22:53:08.173Z,27.40
2018-11-25T22:58:28.366Z,26.63
2018-11-25T23:01:02.225Z,29.23
2018-11-25T23:07:00.927Z,27.93
2018-11-25T23:09:36.293Z,24.90
2018-11-25T23:12:10.110Z,28.70
2018-11-25T23:17:25.341Z,26.93
2018-11-25T23:19:59.159Z,26.70
2018-11-25T23:25:14.672Z,25.70
2018-11-25T23:27:48.509Z,27.10
2018-11-25T23:30:22.329Z,26.40
2018-11-25T23:32:56.120Z,28.97
2018-11-25T23:35:31.397Z,26.37
2018-11-25T23:38:05.205Z,27.00
2018-11-25T23:40:39.552Z,27.60
2018-11-25T23:43:13.985Z,26.20
2018-11-25T23:45:48.573Z,26.23
2018-11-25T23:48:22.377Z,28.50
2018-11-25T23:50:56.149Z,29.45
2018-11-25T23:53:30.260Z,27.87
2018-11-25T23:56:04.051Z,25.93
2018-11-25T23:58:37.876Z,31.63
